createdAt,value
2019-02-17T00:02:21.607Z,6.40
2019-02-17T00:04:49.883Z,6.30
2019-02-17T00:07:17.901Z,6.20
2019-02-17T00:09:47.104Z,6.00
2019-02-17T00:12:28.250Z,5.90
2019-02-17T00:14:55.888Z,5.60
2019-02-17T00:17:24.368Z,5.40
2019-02-17T00:19:52.849Z,5.20
2019-02-17T00:22:21.329Z,4.90
2019-02-17T00:24:49.608Z,4.90
2019-02-17T00:27:18.087Z,4.90
2019-02-17T00:29:46.568Z,4.90
2019-02-17T00:32:15.050Z,4.80
2019-02-17T00:34:43.528Z,4.80
2019-02-17T00:37:12.010Z,4.90
2019-02-17T00:39:40.488Z,4.90
2019-02-17T00:42:08.561Z,5.20
2019-02-17T00:44:36.835Z,5.10
2019-02-17T00:47:05.111Z,5.00
2019-02-17T00:49:33.386Z,5.00
2019-02-17T00:52:01.663Z,5.00
2019-02-17T00:54:29.676Z,4.90
2019-02-17T00:56:58.213Z,4.80
2019-02-17T00:59:26.696Z,4.70
2019-02-17T01:02:08.004Z,4.50
2019-02-17T01:04:35.537Z,5.10
2019-02-17T01:07:04.018Z,4.30
2019-02-17T01:09:33.522Z,4.20
2019-02-17T01:12:01.798Z,4.20
2019-02-17T01:14:30.074Z,4.20
2019-02-17T01:16:58.354Z,4.20
2019-02-17T01:19:26.422Z,4.30
2019-02-17T01:21:54.900Z,4.40
2019-02-17T01:24:42.772Z,4.70
2019-02-17T01:27:10.909Z,5.20
2019-02-17T01:29:38.980Z,5.00
2019-02-17T01:32:07.254Z,5.20
2019-02-17T01:34:35.734Z,5.30
2019-02-17T01:37:04.217Z,5.40
2019-02-17T01:39:32.700Z,5.30
2019-02-17T01:42:01.175Z,5.50
2019-02-17T01:44:29.657Z,5.50
2019-02-17T01:46:58.136Z,5.50
2019-02-17T01:49:26.619Z,5.50
2019-02-17T01:51:55.097Z,5.50
2019-02-17T01:54:23.577Z,5.40
2019-02-17T01:56:52.057Z,5.40
2019-02-17T01:59:30.171Z,5.40
2019-02-17T02:01:50.658Z,5.40
2019-02-17T02:04:18.934Z,5.50
2019-02-17T02:07:06.832Z,5.50
2019-02-17T02:09:34.940Z,5.40
2019-02-17T02:12:03.421Z,5.40
2019-02-17T02:14:31.903Z,5.50
2019-02-17T02:17:00.391Z,5.50
2019-02-17T02:19:28.452Z,5.40
2019-02-17T02:21:56.947Z,5.40
2019-02-17T02:24:44.787Z,5.30
2019-02-17T02:27:12.800Z,5.70
2019-02-17T02:29:41.550Z,5.30
2019-02-17T02:32:09.698Z,5.30
2019-02-17T02:34:39.200Z,5.30
2019-02-17T02:37:07.681Z,5.30
2019-02-17T02:39:35.974Z,5.30
2019-02-17T02:42:04.231Z,5.30
2019-02-17T02:44:32.510Z,5.30
2019-02-17T02:47:00.783Z,5.20
2019-02-17T02:49:29.265Z,5.20
2019-02-17T02:51:57.747Z,5.20
2019-02-17T02:54:25.824Z,5.10
2019-02-17T02:56:55.320Z,5.00
2019-02-17T02:59:23.801Z,5.00
2019-02-17T03:01:52.282Z,5.00
2019-02-17T03:04:20.760Z,5.10
2019-02-17T03:06:51.086Z,5.00
2019-02-17T03:09:19.363Z,5.00
2019-02-17T03:11:47.636Z,4.90
2019-02-17T03:14:16.116Z,4.90
2019-02-17T03:16:44.187Z,4.90
2019-02-17T03:19:12.257Z,4.80
2019-02-17T03:21:40.535Z,4.80
2019-02-17T03:24:08.604Z,4.80
2019-02-17T03:26:36.881Z,4.80
2019-02-17T03:29:05.156Z,4.80
2019-02-17T03:31:33.441Z,4.80
2019-02-17T03:34:04.987Z,4.90
2019-02-17T03:36:33.260Z,4.90
2019-02-17T03:39:01.535Z,4.80
2019-02-17T03:41:29.606Z,4.80
2019-02-17T03:43:57.882Z,4.90
2019-02-17T03:46:26.158Z,5.00
2019-02-17T03:48:54.642Z,5.10
2019-02-17T03:51:23.119Z,5.30
2019-02-17T03:53:51.599Z,5.40
2019-02-17T03:56:19.874Z,5.40
2019-02-17T03:58:48.359Z,5.60
2019-02-17T04:01:16.837Z,5.60
2019-02-17T04:03:45.318Z,5.60
2019-02-17T04:06:14.868Z,5.60
2019-02-17T04:08:43.101Z,5.60
2019-02-17T04:11:11.577Z,5.60
2019-02-17T04:13:39.852Z,5.60
2019-02-17T04:16:08.333Z,5.50
2019-02-17T04:18:36.609Z,5.50
2019-02-17T04:21:04.640Z,5.50
2019-02-17T04:23:32.757Z,5.40
2019-02-17T04:26:01.642Z,5.30
2019-02-17T04:28:29.714Z,5.10
2019-02-17T04:30:57.375Z,4.90
2019-02-17T04:33:38.878Z,4.70
2019-02-17T04:36:06.832Z,4.50
2019-02-17T04:38:34.287Z,4.40
2019-02-17T04:41:02.563Z,4.30
2019-02-17T04:43:31.041Z,4.30
2019-02-17T04:45:59.520Z,4.20
2019-02-17T04:48:40.806Z,4.10
2019-02-17T04:51:08.363Z,4.00
2019-02-17T04:53:36.431Z,4.00
2019-02-17T04:56:18.201Z,3.90
2019-02-17T04:58:45.681Z,4.20
2019-02-17T05:01:14.161Z,3.80
2019-02-17T05:03:42.437Z,3.70
2019-02-17T05:06:10.508Z,3.70
2019-02-17T05:08:38.987Z,3.70
2019-02-17T05:11:07.267Z,3.70
2019-02-17T05:13:35.756Z,3.60
2019-02-17T05:16:04.019Z,3.60
2019-02-17T05:18:32.319Z,3.50
2019-02-17T05:21:00.572Z,3.40
2019-02-17T05:23:28.846Z,3.40
2019-02-17T05:25:58.146Z,3.40
2019-02-17T05:28:26.637Z,3.40
2019-02-17T05:30:55.109Z,3.30
2019-02-17T05:33:22.973Z,3.30
2019-02-17T05:35:51.454Z,3.30
2019-02-17T05:38:19.935Z,3.30
2019-02-17T05:40:48.415Z,3.30
2019-02-17T05:43:16.895Z,3.30
2019-02-17T05:45:45.379Z,3.30
2019-02-17T05:48:13.857Z,3.30
2019-02-17T05:50:43.361Z,3.40
2019-02-17T05:53:13.077Z,3.50
2019-02-17T05:55:41.550Z,3.60
2019-02-17T05:58:09.826Z,3.70
2019-02-17T06:00:38.922Z,3.80
2019-02-17T06:03:06.996Z,3.90
2019-02-17T06:05:48.601Z,4.00
2019-02-17T06:08:16.241Z,4.40
2019-02-17T06:10:46.565Z,4.10
2019-02-17T06:13:14.841Z,4.40
2019-02-17T06:15:43.335Z,4.20
2019-02-17T06:18:11.244Z,4.30
2019-02-17T06:20:38.523Z,4.30
2019-02-17T06:23:05.947Z,4.30
2019-02-17T06:25:34.379Z,4.30
2019-02-17T06:28:02.496Z,4.20
2019-02-17T06:30:30.930Z,4.20
2019-02-17T06:32:59.204Z,4.20
2019-02-17T06:35:27.275Z,4.10
2019-02-17T06:37:55.755Z,4.10
2019-02-17T06:40:24.031Z,4.00
2019-02-17T06:42:52.309Z,3.90
2019-02-17T06:45:20.044Z,3.90
2019-02-17T06:47:47.229Z,3.90
2019-02-17T06:50:14.486Z,3.90
2019-02-17T06:52:41.642Z,4.00
2019-02-17T06:55:10.727Z,4.10
2019-02-17T06:57:40.117Z,4.10
2019-02-17T07:00:17.200Z,4.20
2019-02-17T07:02:46.499Z,4.40
2019-02-17T07:05:28.503Z,4.60
2019-02-17T07:07:56.772Z,4.80
2019-02-17T07:10:25.049Z,5.10
2019-02-17T07:12:53.324Z,5.30
2019-02-17T07:15:21.807Z,5.60
2019-02-17T07:17:50.284Z,5.70
2019-02-17T07:20:18.768Z,6.00
2019-02-17T07:22:47.044Z,6.10
2019-02-17T07:25:15.122Z,6.30
2019-02-17T07:27:43.594Z,6.50
2019-02-17T07:30:25.005Z,6.60
2019-02-17T07:32:52.636Z,6.70
2019-02-17T07:35:21.118Z,6.80
2019-02-17T07:37:50.622Z,6.90
2019-02-17T07:40:18.908Z,7.10
2019-02-17T07:42:48.632Z,7.20
2019-02-17T07:45:17.091Z,7.20
2019-02-17T07:47:46.593Z,7.30
2019-02-17T07:50:16.097Z,7.40
2019-02-17T07:52:44.577Z,7.60
2019-02-17T07:55:13.058Z,7.80
2019-02-17T07:57:41.949Z,7.90
2019-02-17T08:00:11.253Z,8.00
2019-02-17T08:02:38.908Z,8.10
2019-02-17T08:05:07.471Z,8.40
2019-02-17T08:07:35.255Z,8.50
2019-02-17T08:10:08.242Z,8.40
2019-02-17T08:12:36.723Z,8.60
2019-02-17T08:15:07.396Z,8.90
2019-02-17T08:17:35.118Z,9.30
2019-02-17T08:20:16.075Z,9.60
2019-02-17T08:22:43.367Z,10.50
2019-02-17T08:25:21.511Z,9.80
2019-02-17T08:27:41.736Z,9.90
2019-02-17T08:30:11.846Z,10.00
2019-02-17T08:32:39.518Z,10.10
2019-02-17T08:35:07.794Z,10.40
2019-02-17T08:37:36.068Z,10.70
2019-02-17T08:40:06.873Z,11.20
2019-02-17T08:42:34.466Z,12.00
2019-02-17T08:45:09.702Z,12.50
2019-02-17T08:47:38.183Z,13.10
2019-02-17T08:50:10.809Z,13.80
2019-02-17T08:52:38.419Z,13.30
2019-02-17T08:55:09.000Z,13.00
2019-02-17T08:57:38.046Z,12.70
2019-02-17T09:00:12.909Z,12.80
2019-02-17T09:02:40.843Z,12.80
2019-02-17T09:05:08.813Z,12.50
2019-02-17T09:07:37.299Z,12.30
2019-02-17T09:10:09.049Z,12.50
2019-02-17T09:12:37.120Z,13.20
2019-02-17T09:15:08.672Z,13.00
2019-02-17T09:17:36.743Z,12.80
2019-02-17T09:20:08.032Z,12.60
2019-02-17T09:22:35.956Z,12.70
2019-02-17T09:25:06.870Z,13.10
2019-02-17T09:27:34.556Z,13.10
2019-02-17T09:30:03.973Z,13.10
2019-02-17T09:32:31.723Z,13.30
2019-02-17T09:34:59.997Z,12.90
2019-02-17T09:37:28.272Z,12.10
2019-02-17T09:39:56.554Z,11.50
2019-02-17T09:42:24.824Z,11.40
2019-02-17T09:44:52.895Z,9.80
2019-02-17T09:47:21.375Z,10.80
2019-02-17T09:49:49.651Z,10.50
2019-02-17T09:52:17.517Z,10.50
2019-02-17T09:55:06.101Z,10.50
2019-02-17T09:57:33.730Z,10.90
2019-02-17T10:00:03.056Z,10.90
2019-02-17T10:02:31.100Z,10.90
2019-02-17T10:05:00.627Z,10.90
2019-02-17T10:07:28.010Z,10.80
2019-02-17T10:09:56.132Z,10.90
2019-02-17T10:12:24.818Z,10.80
2019-02-17T10:14:53.300Z,10.80
2019-02-17T10:17:21.575Z,11.00
2019-02-17T10:19:49.856Z,11.00
2019-02-17T10:22:18.128Z,11.00
2019-02-17T10:24:46.401Z,10.90
2019-02-17T10:27:14.678Z,10.90
2019-02-17T10:29:42.702Z,11.00
2019-02-17T10:32:10.873Z,11.20
2019-02-17T10:34:39.307Z,11.10
2019-02-17T10:37:07.575Z,11.10
2019-02-17T10:39:35.851Z,11.00
2019-02-17T10:42:04.331Z,11.00
2019-02-17T10:44:32.813Z,11.10
2019-02-17T10:47:01.293Z,11.10
2019-02-17T10:49:29.363Z,11.00
2019-02-17T10:51:57.639Z,11.20
2019-02-17T10:54:25.921Z,11.30
2019-02-17T10:56:54.250Z,11.40
2019-02-17T10:59:22.466Z,11.60
2019-02-17T11:01:50.742Z,11.70
2019-02-17T11:04:19.019Z,11.70
2019-02-17T11:06:47.293Z,11.60
2019-02-17T11:09:20.945Z,11.50
2019-02-17T11:12:02.050Z,11.50
2019-02-17T11:14:29.733Z,12.00
2019-02-17T11:16:59.238Z,11.60
2019-02-17T11:19:27.514Z,11.40
2019-02-17T11:21:55.584Z,11.30
2019-02-17T11:24:23.860Z,11.20
2019-02-17T11:26:52.136Z,11.60
2019-02-17T11:29:20.618Z,12.20
2019-02-17T11:31:49.108Z,12.30
2019-02-17T11:34:17.373Z,12.00
2019-02-17T11:36:45.853Z,11.80
2019-02-17T11:39:16.177Z,11.80
2019-02-17T11:41:44.453Z,11.70
2019-02-17T11:44:12.783Z,11.60
2019-02-17T11:46:41.005Z,11.60
2019-02-17T11:49:09.280Z,11.40
2019-02-17T11:51:37.760Z,11.30
2019-02-17T11:54:06.241Z,11.00
2019-02-17T11:56:34.721Z,11.00
2019-02-17T11:59:03.202Z,11.00
2019-02-17T12:01:31.684Z,11.00
2019-02-17T12:03:59.960Z,11.10
2019-02-17T12:06:28.234Z,11.10
2019-02-17T12:08:56.717Z,11.00
2019-02-17T12:11:25.195Z,11.00
2019-02-17T12:13:53.676Z,11.10
2019-02-17T12:16:22.156Z,11.20
2019-02-17T12:18:50.637Z,11.80
2019-02-17T12:21:26.901Z,12.00
2019-02-17T12:24:10.946Z,12.20
2019-02-17T12:26:43.317Z,12.80
2019-02-17T12:29:13.231Z,12.90
2019-02-17T12:31:41.507Z,12.70
2019-02-17T12:34:09.988Z,12.50
2019-02-17T12:36:38.468Z,12.10
2019-02-17T12:39:08.167Z,11.90
2019-02-17T12:41:35.842Z,11.60
2019-02-17T12:44:04.118Z,11.40
2019-02-17T12:46:32.390Z,11.20
2019-02-17T12:49:13.970Z,11.10
2019-02-17T12:51:41.640Z,11.50
2019-02-17T12:54:09.916Z,11.10
2019-02-17T12:56:38.192Z,11.00
2019-02-17T12:59:06.466Z,11.10
2019-02-17T13:01:34.950Z,11.00
2019-02-17T13:04:03.433Z,10.80
2019-02-17T13:06:31.908Z,10.80
2019-02-17T13:09:00.185Z,10.80
2019-02-17T13:11:28.459Z,10.70
2019-02-17T13:13:56.735Z,10.60
2019-02-17T13:16:25.215Z,10.50
2019-02-17T13:18:53.695Z,10.40
2019-02-17T13:21:21.768Z,10.40
2019-02-17T13:23:50.247Z,10.40
2019-02-17T13:26:18.727Z,10.30
2019-02-17T13:28:47.209Z,10.30
2019-02-17T13:31:15.226Z,10.20
2019-02-17T13:33:43.556Z,10.20
2019-02-17T13:36:12.036Z,10.20
2019-02-17T13:38:40.322Z,10.20
2019-02-17T13:41:08.791Z,10.10
2019-02-17T13:43:50.210Z,10.00
2019-02-17T13:46:17.836Z,10.60
2019-02-17T13:48:46.316Z,10.10
2019-02-17T13:51:14.801Z,10.10
2019-02-17T13:53:43.095Z,10.00
2019-02-17T13:56:10.944Z,10.00
2019-02-17T13:58:39.215Z,10.00
2019-02-17T14:01:07.490Z,10.00
2019-02-17T14:03:35.766Z,9.90
2019-02-17T14:06:03.837Z,10.00
2019-02-17T14:08:32.727Z,9.90
2019-02-17T14:11:00.392Z,9.90
2019-02-17T14:13:28.869Z,9.90
2019-02-17T14:15:57.350Z,10.00
2019-02-17T14:18:25.625Z,9.90
2019-02-17T14:20:53.900Z,9.90
2019-02-17T14:23:21.975Z,9.90
2019-02-17T14:25:50.248Z,9.90
2019-02-17T14:28:18.524Z,9.90
2019-02-17T14:30:46.799Z,9.90
2019-02-17T14:33:15.075Z,9.90
2019-02-17T14:35:43.562Z,9.90
2019-02-17T14:38:12.036Z,9.80
2019-02-17T14:40:40.516Z,9.70
2019-02-17T14:43:08.997Z,9.70
2019-02-17T14:45:37.273Z,9.60
2019-02-17T14:48:05.755Z,9.60
2019-02-17T14:50:33.825Z,9.60
2019-02-17T14:53:01.690Z,9.60
2019-02-17T14:55:29.764Z,9.50
2019-02-17T14:58:04.915Z,9.50
2019-02-17T15:00:28.176Z,9.50
2019-02-17T15:02:56.431Z,9.50
2019-02-17T15:05:24.298Z,9.50
2019-02-17T15:07:52.778Z,9.50
2019-02-17T15:10:21.259Z,9.40
2019-02-17T15:12:49.745Z,9.40
2019-02-17T15:15:18.015Z,9.40
2019-02-17T15:17:46.495Z,9.30
2019-02-17T15:20:23.525Z,9.30
2019-02-17T15:22:52.765Z,9.30
2019-02-17T15:25:20.539Z,9.30
2019-02-17T15:27:49.021Z,9.30
2019-02-17T15:30:17.981Z,9.20
2019-02-17T15:32:45.781Z,9.20
2019-02-17T15:35:14.256Z,9.20
2019-02-17T15:37:42.737Z,9.20
2019-02-17T15:40:14.105Z,9.20
2019-02-17T15:42:43.224Z,9.10
2019-02-17T15:45:12.705Z,9.10
2019-02-17T15:47:40.550Z,9.10
2019-02-17T15:50:10.260Z,9.00
2019-02-17T15:52:37.920Z,9.00
2019-02-17T15:55:09.271Z,9.10
2019-02-17T15:57:36.724Z,9.10
2019-02-17T16:00:08.482Z,9.10
2019-02-17T16:02:36.553Z,9.00
2019-02-17T16:05:06.264Z,8.90
2019-02-17T16:07:33.926Z,8.80
2019-02-17T16:10:03.938Z,8.80
2019-02-17T16:12:31.909Z,8.70
2019-02-17T16:15:00.035Z,8.80
2019-02-17T16:17:28.463Z,8.70
2019-02-17T16:19:57.145Z,8.70
2019-02-17T16:22:25.140Z,8.70
2019-02-17T16:24:52.400Z,8.70
2019-02-17T16:27:19.796Z,8.70
2019-02-17T16:29:47.196Z,8.70
2019-02-17T16:32:14.480Z,8.70
2019-02-17T16:34:41.746Z,8.80
2019-02-17T16:37:09.229Z,8.70
2019-02-17T16:39:36.774Z,8.70
2019-02-17T16:42:04.156Z,8.60
2019-02-17T16:44:31.432Z,8.60
2019-02-17T16:46:58.735Z,8.60
2019-02-17T16:49:26.016Z,8.60
2019-02-17T16:51:53.327Z,8.50
2019-02-17T16:54:20.659Z,8.60
2019-02-17T16:56:48.097Z,8.60
2019-02-17T16:59:15.484Z,8.70
2019-02-17T17:01:42.755Z,8.70
2019-02-17T17:04:10.082Z,9.10
2019-02-17T17:06:37.264Z,8.60
2019-02-17T17:09:04.621Z,8.60
2019-02-17T17:11:31.919Z,8.60
2019-02-17T17:13:59.224Z,8.50
2019-02-17T17:16:26.598Z,8.50
2019-02-17T17:18:53.853Z,8.50
2019-02-17T17:21:21.157Z,8.40
2019-02-17T17:23:48.516Z,8.40
2019-02-17T17:26:15.820Z,8.40
2019-02-17T17:28:43.168Z,8.40
2019-02-17T17:31:10.491Z,8.40
2019-02-17T17:33:37.745Z,8.40
2019-02-17T17:36:05.075Z,8.30
2019-02-17T17:38:32.297Z,8.30
2019-02-17T17:40:59.665Z,8.30
2019-02-17T17:43:26.957Z,8.30
2019-02-17T17:45:54.313Z,8.40
2019-02-17T17:48:21.509Z,8.30
2019-02-17T17:50:48.908Z,8.20
2019-02-17T17:53:16.181Z,8.20
2019-02-17T17:55:43.543Z,8.10
2019-02-17T17:58:10.829Z,8.10
2019-02-17T18:00:39.351Z,8.00
2019-02-17T18:03:06.900Z,8.00
2019-02-17T18:05:34.201Z,7.90
2019-02-17T18:08:01.438Z,7.90
2019-02-17T18:10:30.619Z,7.90
2019-02-17T18:12:59.915Z,7.90
2019-02-17T18:15:27.224Z,8.00
2019-02-17T18:17:55.124Z,8.00
2019-02-17T18:20:22.589Z,8.00
2019-02-17T18:22:49.863Z,8.00
2019-02-17T18:25:17.063Z,7.90
2019-02-17T18:27:44.317Z,7.90
2019-02-17T18:30:16.930Z,7.80
2019-02-17T18:32:44.136Z,7.70
2019-02-17T18:35:19.244Z,7.60
2019-02-17T18:37:41.302Z,7.50
2019-02-17T18:40:12.753Z,7.40
2019-02-17T18:42:40.028Z,7.20
2019-02-17T18:45:14.701Z,7.00
2019-02-17T18:47:41.864Z,6.80
2019-02-17T18:50:10.984Z,6.70
2019-02-17T18:52:38.296Z,6.50
2019-02-17T18:55:07.148Z,6.40
2019-02-17T18:57:34.559Z,6.30
2019-02-17T19:00:03.231Z,6.20
2019-02-17T19:02:30.597Z,6.00
2019-02-17T19:04:57.941Z,6.00
2019-02-17T19:07:25.193Z,5.80
2019-02-17T19:09:52.871Z,5.70
2019-02-17T19:12:20.232Z,5.70
2019-02-17T19:14:47.625Z,5.60
2019-02-17T19:17:14.906Z,5.50
2019-02-17T19:19:42.567Z,5.50
2019-02-17T19:22:10.637Z,5.40
2019-02-17T19:24:38.920Z,5.40
2019-02-17T19:27:08.624Z,5.20
2019-02-17T19:29:36.693Z,5.30
2019-02-17T19:32:04.973Z,5.20
2019-02-17T19:34:34.420Z,5.20
2019-02-17T19:37:02.954Z,5.10
2019-02-17T19:39:31.027Z,5.10
2019-02-17T19:41:59.101Z,5.10
2019-02-17T19:44:27.578Z,5.10
2019-02-17T19:46:55.654Z,5.10
2019-02-17T19:49:23.924Z,5.10
2019-02-17T19:51:52.254Z,5.10
2019-02-17T19:54:20.479Z,5.10
2019-02-17T19:56:48.711Z,5.10
2019-02-17T19:59:17.436Z,5.10
2019-02-17T20:01:45.097Z,5.00
2019-02-17T20:04:15.035Z,4.90
2019-02-17T20:06:43.084Z,4.90
2019-02-17T20:09:15.308Z,4.90
2019-02-17T20:11:42.296Z,4.80
2019-02-17T20:14:10.674Z,4.80
2019-02-17T20:16:38.643Z,4.80
2019-02-17T20:19:06.713Z,4.80
2019-02-17T20:21:34.989Z,4.80
2019-02-17T20:24:03.061Z,4.70
2019-02-17T20:26:31.541Z,4.60
2019-02-17T20:28:59.818Z,4.60
2019-02-17T20:31:28.155Z,4.60
2019-02-17T20:33:56.372Z,4.60
2019-02-17T20:36:24.443Z,4.50
2019-02-17T20:39:05.164Z,4.50
2019-02-17T20:41:32.668Z,4.40
2019-02-17T20:44:00.785Z,4.40
2019-02-17T20:46:29.013Z,4.40
2019-02-17T20:48:57.083Z,4.30
2019-02-17T20:51:25.359Z,4.30
2019-02-17T20:53:54.247Z,4.40
2019-02-17T20:56:21.911Z,4.50
2019-02-17T20:58:50.393Z,4.50
2019-02-17T21:01:18.461Z,4.60
2019-02-17T21:03:46.736Z,4.60
2019-02-17T21:06:14.603Z,4.70
2019-02-17T21:08:43.083Z,4.70
2019-02-17T21:11:11.566Z,4.60
2019-02-17T21:13:40.045Z,4.60
2019-02-17T21:16:08.935Z,4.60
2019-02-17T21:18:36.801Z,4.50
2019-02-17T21:21:05.076Z,4.50
2019-02-17T21:23:33.351Z,4.40
2019-02-17T21:26:01.629Z,4.30
2019-02-17T21:28:29.903Z,4.30
2019-02-17T21:30:58.180Z,4.20
2019-02-17T21:33:26.455Z,4.20
2019-02-17T21:35:54.731Z,4.20
2019-02-17T21:38:22.664Z,4.20
2019-02-17T21:40:50.462Z,4.10
2019-02-17T21:43:18.330Z,4.10
2019-02-17T21:45:46.809Z,4.10
2019-02-17T21:48:16.315Z,4.00
2019-02-17T21:50:44.593Z,3.90
2019-02-17T21:53:20.409Z,3.80
2019-02-17T21:55:42.784Z,3.80
2019-02-17T21:58:11.261Z,3.80
2019-02-17T22:00:39.741Z,3.70
2019-02-17T22:03:08.221Z,3.70
2019-02-17T22:05:36.291Z,3.70
2019-02-17T22:08:04.369Z,3.70
2019-02-17T22:10:32.229Z,3.60
2019-02-17T22:13:00.504Z,3.60
2019-02-17T22:15:28.985Z,3.60
2019-02-17T22:17:57.468Z,3.60
2019-02-17T22:20:25.952Z,3.60
2019-02-17T22:22:54.429Z,3.50
2019-02-17T22:25:22.907Z,3.50
2019-02-17T22:27:51.253Z,3.40
2019-02-17T22:30:19.412Z,3.40
2019-02-17T22:32:47.739Z,3.40
2019-02-17T22:35:16.010Z,3.30
2019-02-17T22:37:44.081Z,3.30
2019-02-17T22:40:12.989Z,3.30
2019-02-17T22:42:40.428Z,3.20
2019-02-17T22:45:10.136Z,3.20
2019-02-17T22:47:37.800Z,3.20
2019-02-17T22:50:11.810Z,3.20
2019-02-17T22:52:40.086Z,3.20
2019-02-17T22:55:11.022Z,3.10
2019-02-17T22:57:38.686Z,3.10
2019-02-17T23:00:47.510Z,3.10
2019-02-17T23:03:15.990Z,3.10
2019-02-17T23:05:47.953Z,3.10
2019-02-17T23:08:16.229Z,3.70
2019-02-17T23:10:44.299Z,3.10
2019-02-17T23:13:12.175Z,3.00
2019-02-17T23:15:40.441Z,3.00
2019-02-17T23:18:08.923Z,3.00
2019-02-17T23:20:37.402Z,3.10
2019-02-17T23:23:05.677Z,3.10
2019-02-17T23:25:33.953Z,3.00
2019-02-17T23:28:02.229Z,3.00
2019-02-17T23:30:30.566Z,2.90
2019-02-17T23:32:58.576Z,2.90
2019-02-17T23:35:26.851Z,2.90
2019-02-17T23:37:56.563Z,3.70
2019-02-17T23:40:25.042Z,2.90
2019-02-17T23:42:53.522Z,2.90
2019-02-17T23:45:21.593Z,3.00
2019-02-17T23:47:49.664Z,3.00
2019-02-17T23:50:17.735Z,3.00
2019-02-17T23:52:45.805Z,3.00
2019-02-17T23:55:14.084Z,3.00
2019-02-17T23:57:42.356Z,3.00
